createdAt,value
2023-05-04T00:03:10.566Z,101508.00
2023-05-04T00:08:13.839Z,101508.20
2023-05-04T00:13:17.229Z,101509.20
2023-05-04T00:18:20.457Z,101506.40
2023-05-04T00:23:23.575Z,101509.00
2023-05-04T00:28:26.875Z,101507.00
2023-05-04T00:33:30.102Z,101508.20
2023-05-04T00:38:50.407Z,101506.60
2023-05-04T00:43:53.603Z,101513.60
2023-05-04T00:48:59.582Z,101499.40
2023-05-04T00:54:03.216Z,101495.00
2023-05-04T00:59:06.537Z,101489.80
2023-05-04T01:04:10.679Z,101486.60
2023-05-04T01:09:36.590Z,101493.00
2023-05-04T01:14:41.408Z,101489.60
2023-05-04T01:19:44.536Z,101485.00
2023-05-04T01:24:48.346Z,101486.00
2023-05-04T01:30:02.479Z,101489.80
2023-05-04T01:35:06.747Z,101483.00
2023-05-04T01:40:10.778Z,101479.00
2023-05-04T01:45:14.193Z,101482.40
2023-05-04T01:50:17.521Z,101478.00
2023-05-04T01:55:20.724Z,101483.60
2023-05-04T02:00:24.161Z,101487.60
2023-05-04T02:05:27.533Z,101484.80
2023-05-04T02:10:30.851Z,101491.20
2023-05-04T02:15:34.066Z,101489.20
2023-05-04T02:20:37.163Z,101489.80
2023-05-04T02:25:43.693Z,101491.20
2023-05-04T02:30:46.977Z,101489.60
2023-05-04T02:35:50.108Z,101492.00
2023-05-04T02:40:53.298Z,101489.20
2023-05-04T02:45:56.532Z,101496.00
2023-05-04T02:50:59.903Z,101495.00
2023-05-04T02:56:03.217Z,101490.40
2023-05-04T03:01:06.673Z,101486.20
2023-05-04T03:06:09.856Z,101483.00
2023-05-04T03:11:13.249Z,101485.40
2023-05-04T03:16:17.514Z,101487.00
2023-05-04T03:21:21.611Z,101484.60
2023-05-04T03:26:24.922Z,101484.00
2023-05-04T03:31:28.193Z,101484.60
2023-05-04T03:36:31.447Z,101486.00
2023-05-04T03:41:34.554Z,101486.80
2023-05-04T03:46:37.861Z,101478.60
2023-05-04T03:51:41.188Z,101478.80
2023-05-04T03:56:44.381Z,101481.80
2023-05-04T04:01:47.460Z,101477.20
2023-05-04T04:06:50.493Z,101479.00
2023-05-04T04:11:53.614Z,101479.00
2023-05-04T04:16:56.806Z,101481.80
2023-05-04T04:22:00.326Z,101487.40
2023-05-04T04:27:03.539Z,101484.60
2023-05-04T04:32:06.853Z,101479.40
2023-05-04T04:37:10.049Z,101476.80
2023-05-04T04:42:13.772Z,101479.60
2023-05-04T04:47:18.223Z,101476.60
2023-05-04T04:52:21.837Z,101480.00
2023-05-04T04:57:25.046Z,101473.20
2023-05-04T05:02:31.138Z,101476.80
2023-05-04T05:07:34.439Z,101472.00
2023-05-04T05:12:37.696Z,101471.60
2023-05-04T05:17:41.100Z,101470.40
2023-05-04T05:22:44.382Z,101472.00
2023-05-04T05:27:47.676Z,101469.00
2023-05-04T05:32:51.399Z,101476.40
2023-05-04T05:37:55.521Z,101475.20
2023-05-04T05:42:58.698Z,101470.80
2023-05-04T05:48:01.754Z,101466.80
2023-05-04T05:53:05.058Z,101463.80
2023-05-04T05:58:08.975Z,101471.40
2023-05-04T06:03:12.189Z,101462.20
2023-05-04T06:08:15.492Z,101459.80
2023-05-04T06:13:18.924Z,101467.20
2023-05-04T06:18:22.414Z,101462.80
2023-05-04T06:23:26.648Z,101468.00
2023-05-04T06:28:29.871Z,101460.40
2023-05-04T06:33:33.078Z,101458.80
2023-05-04T06:38:38.040Z,101457.40
2023-05-04T06:43:42.662Z,101451.80
2023-05-04T06:48:45.871Z,101449.20
2023-05-04T06:53:49.188Z,101451.40
2023-05-04T06:58:52.506Z,101455.00
2023-05-04T07:03:58.636Z,101446.80
2023-05-04T07:09:01.988Z,101449.80
2023-05-04T07:14:05.184Z,101454.40
2023-05-04T07:19:08.543Z,101449.80
2023-05-04T07:24:12.141Z,101440.60
2023-05-04T07:29:15.973Z,101434.40
2023-05-04T07:34:19.223Z,101437.00
2023-05-04T07:39:23.794Z,101437.40
2023-05-04T07:44:27.607Z,101435.80
2023-05-04T07:49:30.736Z,101423.60
2023-05-04T07:54:33.929Z,101419.60
2023-05-04T07:59:37.038Z,101422.60
2023-05-04T08:04:40.145Z,101429.00
2023-05-04T08:09:43.558Z,101425.40
2023-05-04T08:14:48.600Z,101419.00
2023-05-04T08:19:51.744Z,101418.00
2023-05-04T08:24:55.130Z,101414.40
2023-05-04T08:29:58.950Z,101412.20
2023-05-04T08:35:02.165Z,101412.00
2023-05-04T08:40:06.597Z,101413.60
2023-05-04T08:45:10.696Z,101408.00
2023-05-04T08:50:14.591Z,101406.40
2023-05-04T08:55:18.890Z,101407.00
2023-05-04T09:00:23.397Z,101412.80
2023-05-04T09:05:28.480Z,101413.00
2023-05-04T09:10:31.689Z,101406.40
2023-05-04T09:15:35.006Z,101405.20
2023-05-04T09:20:49.681Z,101412.20
2023-05-04T09:25:57.184Z,101408.60
2023-05-04T09:31:01.846Z,101412.80
2023-05-04T09:36:22.240Z,101420.60
2023-05-04T09:41:34.666Z,101417.00
2023-05-04T09:46:38.202Z,101418.80
2023-05-04T09:51:43.234Z,101417.60
2023-05-04T09:56:52.653Z,101412.40
2023-05-04T10:01:57.337Z,101407.20
2023-05-04T10:07:09.958Z,101401.80
2023-05-04T10:12:13.442Z,101392.20
2023-05-04T10:17:48.715Z,101391.00
2023-05-04T10:23:08.225Z,101393.20
2023-05-04T10:28:55.102Z,101391.40
2023-05-04T10:33:58.364Z,101383.00
2023-05-04T10:39:02.084Z,101378.40
2023-05-04T10:44:06.950Z,101366.40
2023-05-04T10:49:17.237Z,101368.80
2023-05-04T10:54:20.624Z,101357.80
2023-05-04T10:59:23.746Z,101357.00
2023-05-04T11:04:27.464Z,101353.40
2023-05-04T11:09:38.655Z,101352.20
2023-05-04T11:14:43.500Z,101342.40
2023-05-04T11:19:52.941Z,101331.60
2023-05-04T11:24:56.667Z,101328.80
2023-05-04T11:30:04.512Z,101326.80
2023-05-04T11:35:18.915Z,101327.80
2023-05-04T11:40:25.755Z,101329.00
2023-05-04T11:45:35.017Z,101336.80
2023-05-04T11:50:38.836Z,101332.20
2023-05-04T11:55:42.654Z,101330.00
2023-05-04T12:00:49.314Z,101323.60
2023-05-04T12:05:56.141Z,101318.80
2023-05-04T12:11:21.907Z,101318.40
2023-05-04T12:16:25.032Z,101319.80
2023-05-04T12:21:28.691Z,101314.40
2023-05-04T12:26:31.933Z,101314.00
2023-05-04T12:31:35.256Z,101310.80
2023-05-04T12:36:38.439Z,101307.80
2023-05-04T12:41:41.636Z,101304.60
2023-05-04T12:46:44.749Z,101304.00
2023-05-04T12:51:48.456Z,101294.40
2023-05-04T12:56:51.716Z,101297.60
2023-05-04T13:01:56.116Z,101288.20
2023-05-04T13:06:59.340Z,101291.20
2023-05-04T13:12:02.528Z,101285.00
2023-05-04T13:17:05.862Z,101281.20
2023-05-04T13:22:09.147Z,101279.00
2023-05-04T13:27:12.466Z,101269.00
2023-05-04T13:32:15.883Z,101265.60
2023-05-04T13:37:18.976Z,101264.60
2023-05-04T13:42:23.457Z,101258.40
2023-05-04T13:47:26.865Z,101248.60
2023-05-04T13:52:32.090Z,101241.80
2023-05-04T13:57:35.505Z,101244.20
2023-05-04T14:02:38.981Z,101241.20
2023-05-04T14:07:42.330Z,101228.20
2023-05-04T14:12:46.019Z,101227.00
2023-05-04T14:17:50.440Z,101223.60
2023-05-04T14:22:53.606Z,101218.40
2023-05-04T14:27:56.799Z,101212.60
2023-05-04T14:33:00.660Z,101210.60
2023-05-04T14:38:03.932Z,101212.40
2023-05-04T14:43:07.559Z,101206.60
2023-05-04T14:48:10.793Z,101197.60
2023-05-04T14:53:14.078Z,101194.00
2023-05-04T14:58:18.034Z,101193.40
2023-05-04T15:03:22.099Z,101191.40
2023-05-04T15:08:25.544Z,101191.20
2023-05-04T15:13:29.476Z,101189.00
2023-05-04T15:18:32.573Z,101184.60
2023-05-04T15:23:35.888Z,101189.40
2023-05-04T15:28:39.111Z,101183.80
2023-05-04T15:33:42.402Z,101178.40
2023-05-04T15:38:46.150Z,101173.60
2023-05-04T15:43:49.342Z,101165.60
2023-05-04T15:48:52.679Z,101161.40
2023-05-04T15:53:55.953Z,101153.80
2023-05-04T15:58:59.165Z,101145.80
2023-05-04T16:04:02.748Z,101145.80
2023-05-04T16:09:07.213Z,101141.60
2023-05-04T16:14:11.145Z,101136.00
2023-05-04T16:19:14.351Z,101143.00
2023-05-04T16:24:17.701Z,101141.60
2023-05-04T16:29:20.976Z,101144.60
2023-05-04T16:34:24.212Z,101140.00
2023-05-04T16:39:31.927Z,101136.40
2023-05-04T16:44:35.626Z,101136.80
2023-05-04T16:49:38.728Z,101135.40
2023-05-04T16:54:41.856Z,101137.20
2023-05-04T16:59:45.455Z,101138.60
2023-05-04T17:04:48.585Z,101131.00
2023-05-04T17:09:51.787Z,101131.00
2023-05-04T17:14:55.085Z,101133.80
2023-05-04T17:19:58.400Z,101135.60
2023-05-04T17:25:01.705Z,101142.00
2023-05-04T17:30:06.885Z,101146.80
2023-05-04T17:35:23.482Z,101144.20
2023-05-04T17:40:29.473Z,101142.60
2023-05-04T17:45:33.363Z,101143.80
2023-05-04T17:50:38.244Z,101149.40
2023-05-04T17:55:41.437Z,101154.00
2023-05-04T18:00:44.762Z,101156.60
2023-05-04T18:05:48.059Z,101157.00
2023-05-04T18:10:51.366Z,101171.20
2023-05-04T18:15:54.896Z,101171.60
2023-05-04T18:21:00.010Z,101180.00
2023-05-04T18:26:03.556Z,101180.40
2023-05-04T18:31:07.064Z,101189.60
2023-05-04T18:36:10.584Z,101195.40
2023-05-04T18:41:14.238Z,101197.00
2023-05-04T18:46:17.507Z,101201.00
2023-05-04T18:51:20.828Z,101211.60
2023-05-04T18:56:24.557Z,101211.80
2023-05-04T19:01:28.413Z,101215.60
2023-05-04T19:06:33.278Z,101217.00
2023-05-04T19:11:36.434Z,101220.80
2023-05-04T19:16:40.335Z,101226.60
2023-05-04T19:21:44.285Z,101232.60
2023-05-04T19:26:47.724Z,101225.60
2023-05-04T19:31:51.526Z,101227.60
2023-05-04T19:36:54.752Z,101228.20
2023-05-04T19:41:58.037Z,101225.60
2023-05-04T19:47:01.266Z,101226.00
2023-05-04T19:52:07.218Z,101225.80
2023-05-04T19:57:10.731Z,101228.40
2023-05-04T20:02:14.422Z,101222.00
2023-05-04T20:07:18.093Z,101227.80
2023-05-04T20:12:21.816Z,101228.40
2023-05-04T20:17:25.051Z,101232.80
2023-05-04T20:22:28.414Z,101238.40
2023-05-04T20:27:31.618Z,101238.00
2023-05-04T20:32:34.967Z,101239.00
2023-05-04T20:37:38.346Z,101240.40
2023-05-04T20:42:41.457Z,101246.80
2023-05-04T20:47:44.788Z,101242.00
2023-05-04T20:52:48.087Z,101242.40
2023-05-04T20:57:52.509Z,101244.60
2023-05-04T21:02:56.151Z,101250.60
2023-05-04T21:07:59.547Z,101255.80
2023-05-04T21:13:02.772Z,101259.20
2023-05-04T21:18:06.309Z,101250.20
2023-05-04T21:23:09.585Z,101240.20
2023-05-04T21:28:12.790Z,101246.20
2023-05-04T21:33:16.099Z,101240.00
2023-05-04T21:38:21.820Z,101240.20
2023-05-04T21:43:25.694Z,101246.60
2023-05-04T21:48:30.055Z,101248.00
2023-05-04T21:53:33.948Z,101248.00
2023-05-04T21:58:42.202Z,101245.60
2023-05-04T22:03:46.225Z,101251.40
2023-05-04T22:08:49.614Z,101243.20
2023-05-04T22:13:52.929Z,101246.00
2023-05-04T22:18:56.139Z,101234.60
2023-05-04T22:24:00.105Z,101236.00
2023-05-04T22:29:03.987Z,101244.60
2023-05-04T22:34:07.505Z,101245.60
2023-05-04T22:39:10.923Z,101257.20
2023-05-04T22:44:14.038Z,101253.60
2023-05-04T22:49:17.959Z,101252.40
2023-05-04T22:54:21.161Z,101249.20
2023-05-04T22:59:24.376Z,101248.20
2023-05-04T23:04:28.117Z,101239.40
2023-05-04T23:09:31.224Z,101233.40
2023-05-04T23:14:34.500Z,101229.00
2023-05-04T23:19:37.625Z,101217.40
2023-05-04T23:24:41.459Z,101210.40
2023-05-04T23:29:44.663Z,101216.40
2023-05-04T23:34:47.963Z,101221.00
2023-05-04T23:39:51.273Z,101221.40
2023-05-04T23:44:56.016Z,101227.40
2023-05-04T23:49:59.553Z,101241.80
2023-05-04T23:55:03.855Z,101236.00
